Weather at Madya Raya Airstrip

Public forecast

Using degrees Celsius for public forecast. Weather courtesy of forecast.io.

Closest aviation weather report (METAR) to Madya Raya Airstrip

Closest report is Supadio Airport, 142.3 nm (263.5 km) WNW.

2024/04/24 11:00 (retrieved 30 minutes ago)

WIOO 241100Z 34002KT 7000 SCT012 28/28 Q1006 NOSIG

Closest aviation forecast (TAF) to Madya Raya Airstrip

Closest forecast is Sultan Aji Muhammad Sulaiman Sepinggan International Airport, 314.9 nm (583.3 km) E.

2024/04/24 06:00 (retrieved 5 hours ago)

TAF WALL 240500Z 2406/2512 22003KT 4000 RA SCT016 BECMG 2407/2409 9999 NSW SCT020